createdAt,value
2019-02-27T00:00:15.275Z,68.89
2019-02-27T00:02:45.619Z,68.78
2019-02-27T00:05:16.003Z,68.54
2019-02-27T00:07:45.991Z,68.55
2019-02-27T00:10:16.537Z,68.50
2019-02-27T00:12:46.527Z,68.36
2019-02-27T00:15:16.553Z,68.49
2019-02-27T00:17:51.100Z,68.39
2019-02-27T00:20:18.269Z,67.66
2019-02-27T00:22:50.611Z,67.65
2019-02-27T00:25:20.082Z,67.33
2019-02-27T00:27:50.065Z,67.63
2019-02-27T00:30:20.629Z,68.25
2019-02-27T00:32:51.826Z,67.68
2019-02-27T00:35:21.852Z,67.68
2019-02-27T00:37:52.714Z,68.58
2019-02-27T00:40:22.901Z,68.63
2019-02-27T00:42:54.354Z,68.07
2019-02-27T00:45:24.995Z,70.38
2019-02-27T00:47:54.912Z,71.66
2019-02-27T00:50:24.817Z,74.45
2019-02-27T00:52:54.713Z,70.42
2019-02-27T00:55:24.979Z,69.01
2019-02-27T00:57:55.015Z,69.04
2019-02-27T01:00:25.397Z,69.03
2019-02-27T01:02:55.635Z,67.94
2019-02-27T01:05:25.769Z,68.01
2019-02-27T01:07:55.730Z,68.68
2019-02-27T01:10:25.896Z,69.91
2019-02-27T01:12:58.119Z,70.03
2019-02-27T01:15:28.917Z,69.07
2019-02-27T01:17:58.841Z,69.22
2019-02-27T01:20:28.741Z,69.95
2019-02-27T01:22:58.655Z,69.02
2019-02-27T01:25:28.537Z,69.09
2019-02-27T01:27:58.481Z,69.59
2019-02-27T01:30:28.404Z,69.64
2019-02-27T01:32:58.316Z,69.98
2019-02-27T01:35:28.229Z,69.65
2019-02-27T01:37:58.272Z,69.37
2019-02-27T01:40:28.494Z,69.21
2019-02-27T01:42:58.487Z,68.64
2019-02-27T01:45:28.449Z,70.40
2019-02-27T01:47:58.620Z,70.49
2019-02-27T01:50:34.560Z,69.09
2019-02-27T01:53:07.321Z,69.09
2019-02-27T01:55:36.892Z,70.12
2019-02-27T01:58:09.249Z,68.14
2019-02-27T02:00:38.968Z,68.32
2019-02-27T02:03:08.283Z,70.22
2019-02-27T02:05:38.305Z,70.44
2019-02-27T02:08:27.549Z,69.60
2019-02-27T02:10:58.939Z,69.27
2019-02-27T02:13:48.056Z,69.33
2019-02-27T02:16:48.447Z,68.23
2019-02-27T02:20:16.582Z,68.05
2019-02-27T02:23:25.031Z,67.99
2019-02-27T02:27:09.833Z,69.80
2019-02-27T02:30:46.937Z,70.22
2019-02-27T02:34:39.859Z,69.40
2019-02-27T02:38:05.047Z,68.57
2019-02-27T02:41:38.327Z,67.49
2019-02-27T02:44:32.789Z,68.14
2019-02-27T02:47:37.984Z,69.20
2019-02-27T02:50:55.558Z,68.41
2019-02-27T02:54:14.033Z,68.00
2019-02-27T02:57:12.887Z,68.85
2019-02-27T03:00:37.826Z,68.41
2019-02-27T03:03:54.629Z,67.78
2019-02-27T03:06:42.332Z,67.52
2019-02-27T03:09:53.123Z,67.41
2019-02-27T03:13:16.692Z,67.64
2019-02-27T03:16:13.598Z,67.76
2019-02-27T03:19:28.200Z,67.85
2019-02-27T03:22:47.353Z,67.39
2019-02-27T03:26:01.734Z,68.06
2019-02-27T03:29:26.514Z,67.96
2019-02-27T03:32:28.136Z,68.46
2019-02-27T03:35:29.212Z,68.45
2019-02-27T03:38:27.103Z,68.59
2019-02-27T03:41:35.011Z,70.88
2019-02-27T03:44:57.217Z,69.52
2019-02-27T03:47:42.877Z,68.82
2019-02-27T03:50:50.763Z,68.46
2019-02-27T03:54:06.414Z,68.39
2019-02-27T03:57:23.393Z,68.53
2019-02-27T04:00:26.143Z,68.00
2019-02-27T04:03:56.019Z,68.41
2019-02-27T04:07:08.381Z,68.51
2019-02-27T04:09:38.901Z,69.11
2019-02-27T04:12:08.824Z,68.99
2019-02-27T04:14:42.064Z,68.99
2019-02-27T04:17:10.699Z,68.74
2019-02-27T04:19:41.328Z,68.43
2019-02-27T04:22:11.305Z,68.37
2019-02-27T04:24:41.234Z,68.46
2019-02-27T04:27:11.536Z,69.91
2019-02-27T04:29:41.938Z,69.07
2019-02-27T04:32:13.138Z,68.64
2019-02-27T04:34:43.357Z,68.86
2019-02-27T04:37:13.505Z,68.57
2019-02-27T04:39:43.429Z,68.52
2019-02-27T04:42:13.599Z,68.15
2019-02-27T04:44:43.516Z,67.86
2019-02-27T04:47:13.681Z,69.12
2019-02-27T04:49:43.604Z,71.01
2019-02-27T04:52:13.527Z,70.39
2019-02-27T04:54:43.453Z,69.53
2019-02-27T04:57:13.384Z,69.37
2019-02-27T04:59:43.313Z,69.85
2019-02-27T05:02:14.645Z,69.60
2019-02-27T05:04:45.483Z,69.65
2019-02-27T05:07:19.931Z,69.18
2019-02-27T05:09:47.118Z,69.80
2019-02-27T05:12:17.104Z,69.47
2019-02-27T05:14:47.039Z,69.68
2019-02-27T05:17:21.153Z,69.57
2019-02-27T05:19:48.616Z,69.67
2019-02-27T05:22:18.592Z,69.42
2019-02-27T05:24:48.824Z,68.96
2019-02-27T05:27:18.799Z,68.65
2019-02-27T05:29:48.698Z,68.10
2019-02-27T05:32:18.611Z,67.62
2019-02-27T05:34:49.781Z,67.64
2019-02-27T05:37:20.481Z,67.60
2019-02-27T05:39:51.130Z,67.43
2019-02-27T05:42:21.733Z,67.27
2019-02-27T05:44:55.511Z,67.50
2019-02-27T05:47:23.438Z,67.61
2019-02-27T05:49:53.464Z,67.58
2019-02-27T05:52:23.475Z,68.06
2019-02-27T05:54:53.414Z,68.25
2019-02-27T05:57:23.879Z,68.52
2019-02-27T05:59:53.926Z,68.26
2019-02-27T06:02:25.502Z,68.11
2019-02-27T06:04:56.122Z,69.22
2019-02-27T06:07:27.235Z,69.54
2019-02-27T06:09:57.222Z,69.02
2019-02-27T06:12:27.354Z,68.80
2019-02-27T06:14:57.919Z,68.50
2019-02-27T06:17:27.882Z,68.30
2019-02-27T06:19:57.823Z,67.89
2019-02-27T06:22:30.505Z,67.11
2019-02-27T06:24:59.710Z,67.37
2019-02-27T06:27:31.644Z,66.90
2019-02-27T06:30:01.420Z,66.65
2019-02-27T06:32:31.814Z,65.80
2019-02-27T06:35:01.737Z,65.42
2019-02-27T06:37:31.695Z,65.66
2019-02-27T06:40:01.790Z,65.32
2019-02-27T06:42:31.842Z,64.79
2019-02-27T06:45:02.082Z,65.34
2019-02-27T06:47:33.019Z,64.89
2019-02-27T06:50:03.968Z,64.13
2019-02-27T06:52:33.923Z,64.29
2019-02-27T06:55:04.414Z,64.20
2019-02-27T06:57:34.337Z,63.90
2019-02-27T07:00:05.617Z,64.00
2019-02-27T07:02:35.506Z,64.32
2019-02-27T07:05:05.712Z,64.46
2019-02-27T07:07:35.949Z,63.66
2019-02-27T07:10:06.357Z,63.41
2019-02-27T07:12:36.242Z,63.42
2019-02-27T07:15:10.223Z,63.75
2019-02-27T07:17:40.158Z,63.71
2019-02-27T07:20:11.295Z,63.14
2019-02-27T07:22:45.492Z,63.33
2019-02-27T07:25:13.893Z,62.31
2019-02-27T07:27:43.862Z,62.29
2019-02-27T07:30:16.559Z,61.79
2019-02-27T07:32:46.648Z,61.33
2019-02-27T07:35:16.925Z,61.02
2019-02-27T07:37:48.359Z,60.53
2019-02-27T07:40:18.527Z,60.23
2019-02-27T07:42:48.780Z,59.97
2019-02-27T07:45:19.306Z,59.95
2019-02-27T07:47:49.267Z,59.98
2019-02-27T07:50:19.672Z,59.66
2019-02-27T07:52:51.810Z,58.66
2019-02-27T07:55:22.897Z,57.96
2019-02-27T07:57:53.043Z,57.45
2019-02-27T08:00:23.256Z,56.79
2019-02-27T08:02:53.413Z,56.43
2019-02-27T08:05:28.315Z,55.88
2019-02-27T08:07:55.464Z,55.80
2019-02-27T08:10:25.546Z,55.36
2019-02-27T08:12:56.615Z,55.36
2019-02-27T08:15:26.772Z,55.30
2019-02-27T08:17:58.001Z,54.87
2019-02-27T08:20:29.091Z,54.84
2019-02-27T08:22:59.279Z,54.77
2019-02-27T08:25:29.205Z,55.02
2019-02-27T08:27:59.099Z,54.62
2019-02-27T08:30:29.932Z,54.38
2019-02-27T08:32:59.929Z,54.64
2019-02-27T08:35:30.098Z,54.72
2019-02-27T08:38:02.826Z,54.62
2019-02-27T08:40:32.312Z,55.01
2019-02-27T08:43:02.333Z,54.64
2019-02-27T08:45:32.325Z,54.60
2019-02-27T08:48:02.882Z,53.77
2019-02-27T08:50:33.287Z,53.64
2019-02-27T08:53:03.276Z,53.24
2019-02-27T08:55:33.175Z,52.86
2019-02-27T08:58:03.320Z,52.25
2019-02-27T09:00:34.276Z,51.33
2019-02-27T09:03:04.503Z,51.80
2019-02-27T09:05:34.451Z,51.56
2019-02-27T09:08:07.347Z,51.54
2019-02-27T09:10:36.423Z,51.39
2019-02-27T09:13:06.459Z,50.93
2019-02-27T09:15:36.612Z,50.71
2019-02-27T09:18:09.438Z,50.57
2019-02-27T09:20:39.347Z,50.57
2019-02-27T09:23:09.284Z,49.56
2019-02-27T09:25:39.262Z,48.72
2019-02-27T09:28:10.074Z,48.44
2019-02-27T09:30:40.653Z,48.23
2019-02-27T09:33:10.791Z,48.23
2019-02-27T09:35:41.012Z,47.29
2019-02-27T09:38:11.126Z,47.10
2019-02-27T09:40:42.106Z,46.40
2019-02-27T09:43:12.225Z,45.42
2019-02-27T09:45:46.303Z,44.88
2019-02-27T09:48:14.177Z,45.47
2019-02-27T09:50:48.439Z,45.13
2019-02-27T09:53:17.573Z,45.30
2019-02-27T09:55:47.864Z,46.09
2019-02-27T09:58:17.786Z,45.70
2019-02-27T10:00:53.789Z,45.91
2019-02-27T10:03:23.859Z,46.67
2019-02-27T10:05:53.835Z,45.79
2019-02-27T10:08:25.322Z,45.05
2019-02-27T10:10:55.660Z,44.78
2019-02-27T10:13:25.722Z,44.51
2019-02-27T10:16:00.271Z,44.67
2019-02-27T10:18:27.714Z,45.15
2019-02-27T10:20:57.764Z,44.76
2019-02-27T10:23:31.183Z,44.45
2019-02-27T10:26:00.708Z,44.22
2019-02-27T10:28:30.807Z,43.90
2019-02-27T10:31:00.755Z,42.94
2019-02-27T10:33:30.740Z,42.69
2019-02-27T10:36:03.641Z,42.85
2019-02-27T10:38:32.950Z,42.22
2019-02-27T10:41:03.163Z,41.52
2019-02-27T10:43:33.142Z,41.57
2019-02-27T10:46:25.071Z,41.52
2019-02-27T10:48:53.557Z,41.33
2019-02-27T10:51:23.483Z,41.08
2019-02-27T10:53:53.429Z,41.69
2019-02-27T10:56:24.252Z,41.32
2019-02-27T10:58:54.797Z,39.46
2019-02-27T11:01:24.690Z,40.40
2019-02-27T11:03:54.711Z,38.51
2019-02-27T11:06:33.501Z,38.24
2019-02-27T11:08:56.573Z,37.43
2019-02-27T11:11:26.634Z,36.81
2019-02-27T11:13:56.669Z,36.84
2019-02-27T11:16:27.972Z,36.95
2019-02-27T11:18:58.009Z,36.39
2019-02-27T11:21:27.909Z,36.62
2019-02-27T11:23:57.844Z,35.09
2019-02-27T11:26:27.849Z,35.32
2019-02-27T11:28:57.959Z,34.16
2019-02-27T11:31:27.984Z,34.77
2019-02-27T11:33:57.992Z,34.81
2019-02-27T11:36:28.210Z,33.27
2019-02-27T11:38:59.188Z,32.90
2019-02-27T11:41:30.061Z,33.21
2019-02-27T11:44:00.172Z,32.72
2019-02-27T11:46:30.091Z,32.87
2019-02-27T11:49:03.046Z,32.87
2019-02-27T11:51:31.790Z,32.26
2019-02-27T11:54:01.730Z,31.34
2019-02-27T11:56:31.699Z,32.80
2019-02-27T11:59:01.665Z,33.20
2019-02-27T12:01:32.219Z,33.27
2019-02-27T12:04:02.370Z,33.13
2019-02-27T12:06:32.318Z,33.04
2019-02-27T12:09:02.381Z,33.68
2019-02-27T12:11:32.775Z,33.72
2019-02-27T12:14:02.858Z,33.95
2019-02-27T12:16:33.390Z,34.23
2019-02-27T12:19:06.404Z,33.91
2019-02-27T12:21:35.529Z,34.29
2019-02-27T12:24:07.967Z,33.91
2019-02-27T12:26:38.364Z,33.49
2019-02-27T12:29:08.792Z,33.48
2019-02-27T12:31:38.925Z,33.44
2019-02-27T12:34:09.090Z,32.95
2019-02-27T12:36:39.333Z,32.70
2019-02-27T12:39:09.431Z,32.93
2019-02-27T12:41:39.481Z,33.06
2019-02-27T12:44:09.476Z,32.20
2019-02-27T12:46:39.444Z,32.07
2019-02-27T12:49:10.293Z,31.93
2019-02-27T12:51:40.465Z,32.12
2019-02-27T12:54:10.987Z,32.66
2019-02-27T12:56:43.326Z,31.06
2019-02-27T12:59:12.637Z,31.14
2019-02-27T13:01:42.823Z,31.64
2019-02-27T13:04:16.109Z,32.91
2019-02-27T13:06:44.879Z,32.02
2019-02-27T13:09:16.680Z,31.26
2019-02-27T13:11:46.676Z,32.32
2019-02-27T13:14:16.631Z,32.37
2019-02-27T13:16:49.551Z,31.32
2019-02-27T13:19:18.842Z,31.58
2019-02-27T13:21:48.772Z,32.11
2019-02-27T13:24:18.900Z,32.27
2019-02-27T13:26:48.808Z,32.57
2019-02-27T13:29:20.553Z,32.85
2019-02-27T13:31:51.485Z,32.89
2019-02-27T13:34:22.048Z,32.45
2019-02-27T13:36:52.047Z,31.76
2019-02-27T13:39:25.446Z,31.64
2019-02-27T13:41:53.926Z,32.74
2019-02-27T13:44:23.886Z,32.42
2019-02-27T13:46:54.495Z,32.94
2019-02-27T13:49:25.988Z,32.27
2019-02-27T13:51:55.856Z,32.26
2019-02-27T13:54:26.265Z,32.85
2019-02-27T13:56:56.151Z,32.28
2019-02-27T13:59:26.105Z,32.61
2019-02-27T14:01:56.212Z,31.29
2019-02-27T14:04:26.153Z,31.46
2019-02-27T14:06:56.105Z,30.83
2019-02-27T14:09:26.368Z,29.68
2019-02-27T14:11:58.695Z,29.59
2019-02-27T14:14:28.343Z,29.47
2019-02-27T14:16:58.363Z,29.62
2019-02-27T14:19:28.293Z,29.20
2019-02-27T14:21:58.617Z,29.73
2019-02-27T14:24:28.766Z,29.62
2019-02-27T14:26:58.982Z,30.41
2019-02-27T14:29:29.778Z,29.90
2019-02-27T14:32:00.981Z,30.11
2019-02-27T14:34:31.143Z,28.85
2019-02-27T14:37:01.168Z,29.33
2019-02-27T14:39:31.112Z,30.54
2019-02-27T14:42:01.100Z,30.63
2019-02-27T14:44:31.460Z,29.11
2019-02-27T14:47:02.392Z,29.40
2019-02-27T14:49:32.387Z,29.05
2019-02-27T14:52:02.965Z,29.11
2019-02-27T14:54:33.437Z,29.60
2019-02-27T14:57:03.321Z,29.11
2019-02-27T14:59:33.299Z,29.62
2019-02-27T15:02:03.306Z,29.28
2019-02-27T15:04:33.354Z,31.09
2019-02-27T15:07:03.608Z,31.35
2019-02-27T15:09:36.069Z,30.58
2019-02-27T15:12:05.354Z,29.74
2019-02-27T15:14:35.305Z,29.91
2019-02-27T15:17:05.346Z,29.56
2019-02-27T15:19:35.523Z,29.52
2019-02-27T15:22:06.230Z,29.96
2019-02-27T15:24:36.246Z,30.92
2019-02-27T15:27:06.200Z,29.70
2019-02-27T15:29:36.908Z,31.06
2019-02-27T15:32:07.049Z,30.01
2019-02-27T15:34:36.928Z,30.21
2019-02-27T15:37:06.885Z,29.86
2019-02-27T15:39:36.783Z,29.78
2019-02-27T15:42:09.692Z,29.86
2019-02-27T15:44:38.427Z,29.84
2019-02-27T15:47:08.373Z,29.17
2019-02-27T15:49:38.337Z,29.38
2019-02-27T15:52:08.637Z,29.99
2019-02-27T15:54:38.546Z,30.08
2019-02-27T15:57:08.469Z,30.44
2019-02-27T15:59:41.737Z,30.01
2019-02-27T16:02:10.516Z,30.46
2019-02-27T16:04:40.857Z,29.78
2019-02-27T16:07:11.222Z,30.09
2019-02-27T16:09:42.423Z,29.86
2019-02-27T16:12:12.481Z,30.56
2019-02-27T16:14:42.845Z,29.93
2019-02-27T16:17:13.832Z,29.93
2019-02-27T16:19:44.713Z,28.97
2019-02-27T16:22:15.096Z,30.07
2019-02-27T16:24:45.021Z,30.08
2019-02-27T16:27:14.978Z,30.08
2019-02-27T16:29:45.177Z,30.00
2019-02-27T16:32:15.127Z,30.58
2019-02-27T16:34:45.154Z,30.48
2019-02-27T16:37:15.272Z,31.04
2019-02-27T16:39:45.700Z,30.86
2019-02-27T16:42:17.260Z,30.11
2019-02-27T16:44:47.165Z,30.38
2019-02-27T16:47:19.906Z,30.65
2019-02-27T16:49:50.424Z,30.67
2019-02-27T16:52:20.494Z,30.57
2019-02-27T16:54:50.738Z,30.93
2019-02-27T16:57:24.137Z,30.83
2019-02-27T16:59:52.426Z,30.72
2019-02-27T17:02:22.435Z,30.56
2019-02-27T17:04:52.473Z,30.78
2019-02-27T17:07:25.635Z,31.06
2019-02-27T17:09:54.222Z,31.63
2019-02-27T17:12:24.191Z,31.51
2019-02-27T17:14:55.379Z,31.67
2019-02-27T17:17:25.817Z,31.54
2019-02-27T17:19:55.761Z,30.83
2019-02-27T17:22:25.882Z,30.76
2019-02-27T17:24:55.994Z,30.29
2019-02-27T17:27:25.961Z,30.08
2019-02-27T17:30:00.085Z,30.31
2019-02-27T17:32:30.999Z,30.30
2019-02-27T17:35:00.896Z,30.41
2019-02-27T17:37:30.857Z,31.52
2019-02-27T17:40:02.246Z,30.99
2019-02-27T17:42:32.452Z,31.38
2019-02-27T17:45:02.493Z,31.32
2019-02-27T17:47:32.493Z,30.98
2019-02-27T17:50:02.687Z,30.97
2019-02-27T17:52:33.111Z,31.04
2019-02-27T17:55:03.506Z,30.92
2019-02-27T17:57:35.199Z,31.59
2019-02-27T18:00:07.045Z,31.65
2019-02-27T18:02:37.198Z,31.90
2019-02-27T18:05:07.370Z,31.56
2019-02-27T18:07:37.334Z,32.90
2019-02-27T18:10:07.689Z,31.82
2019-02-27T18:12:37.948Z,31.10
2019-02-27T18:15:10.152Z,32.34
2019-02-27T18:17:40.289Z,32.11
2019-02-27T18:20:10.870Z,33.22
2019-02-27T18:22:40.905Z,33.70
2019-02-27T18:25:11.708Z,32.71
2019-02-27T18:27:42.534Z,31.94
2019-02-27T18:30:15.476Z,32.64
2019-02-27T18:32:46.605Z,32.70
2019-02-27T18:35:16.889Z,32.36
2019-02-27T18:37:53.101Z,32.03
2019-02-27T18:40:19.619Z,31.43
2019-02-27T18:42:55.164Z,31.61
2019-02-27T18:45:21.733Z,31.23
2019-02-27T18:47:51.830Z,30.88
2019-02-27T18:50:24.742Z,31.28
2019-02-27T18:52:53.828Z,32.90
2019-02-27T18:55:29.573Z,32.14
2019-02-27T18:57:55.675Z,31.56
2019-02-27T19:00:25.819Z,31.03
2019-02-27T19:02:56.268Z,30.77
2019-02-27T19:05:26.407Z,30.83
2019-02-27T19:07:56.960Z,32.19
2019-02-27T19:10:27.129Z,31.33
2019-02-27T19:13:00.040Z,31.84
2019-02-27T19:15:29.448Z,32.92
2019-02-27T19:17:59.726Z,32.38
2019-02-27T19:20:31.063Z,31.36
2019-02-27T19:23:01.696Z,31.48
2019-02-27T19:25:34.758Z,31.56
2019-02-27T19:28:03.805Z,31.64
2019-02-27T19:30:34.782Z,33.08
2019-02-27T19:33:05.334Z,32.58
2019-02-27T19:35:35.438Z,32.89
2019-02-27T19:38:05.622Z,32.84
2019-02-27T19:40:36.248Z,31.74
2019-02-27T19:43:07.132Z,31.58
2019-02-27T19:45:37.807Z,31.23
2019-02-27T19:48:08.012Z,31.21
2019-02-27T19:50:38.078Z,31.88
2019-02-27T19:53:08.030Z,31.77
2019-02-27T19:55:37.997Z,31.57
2019-02-27T19:58:08.188Z,31.26
2019-02-27T20:00:47.632Z,31.42
2019-02-27T20:03:10.074Z,31.70
2019-02-27T20:05:40.034Z,32.18
2019-02-27T20:08:11.128Z,32.40
2019-02-27T20:10:41.137Z,31.78
2019-02-27T20:13:11.211Z,31.82
2019-02-27T20:15:42.763Z,31.69
2019-02-27T20:18:15.698Z,31.74
2019-02-27T20:20:46.237Z,32.05
2019-02-27T20:23:16.253Z,32.92
2019-02-27T20:25:46.769Z,32.05
2019-02-27T20:28:16.734Z,32.44
2019-02-27T20:30:46.960Z,31.68
2019-02-27T20:33:17.081Z,31.80
2019-02-27T20:35:47.353Z,32.74
2019-02-27T20:38:17.348Z,32.92
2019-02-27T20:40:47.344Z,32.40
2019-02-27T20:43:17.324Z,32.64
2019-02-27T20:45:47.275Z,32.99
2019-02-27T20:48:17.337Z,33.58
2019-02-27T20:50:47.895Z,33.07
2019-02-27T20:53:20.942Z,32.71
2019-02-27T20:55:50.049Z,32.91
2019-02-27T20:58:22.075Z,32.93
2019-02-27T21:00:51.920Z,32.65
2019-02-27T21:03:26.924Z,33.82
2019-02-27T21:05:54.116Z,33.01
2019-02-27T21:08:24.100Z,32.83
2019-02-27T21:10:55.300Z,32.54
2019-02-27T21:13:25.873Z,32.62
2019-02-27T21:15:56.245Z,32.93
2019-02-27T21:18:29.112Z,32.74
2019-02-27T21:20:58.413Z,33.45
2019-02-27T21:23:31.808Z,33.27
2019-02-27T21:26:00.317Z,35.08
2019-02-27T21:28:30.409Z,36.55
2019-02-27T21:31:00.497Z,35.85
2019-02-27T21:33:30.427Z,35.17
2019-02-27T21:36:03.367Z,34.99
2019-02-27T21:38:32.862Z,34.85
2019-02-27T21:41:02.868Z,36.85
2019-02-27T21:43:33.113Z,36.96
2019-02-27T21:46:03.157Z,35.35
2019-02-27T21:48:33.165Z,37.25
2019-02-27T21:51:03.126Z,35.95
2019-02-27T21:53:33.032Z,35.26
2019-02-27T21:56:03.282Z,37.37
2019-02-27T21:58:33.268Z,35.79
2019-02-27T22:01:03.580Z,36.67
2019-02-27T22:03:35.229Z,36.50
2019-02-27T22:06:05.767Z,35.58
2019-02-27T22:08:36.114Z,36.34
2019-02-27T22:11:07.996Z,35.58
2019-02-27T22:13:37.917Z,35.09
2019-02-27T22:16:08.057Z,37.41
2019-02-27T22:18:38.061Z,35.80
2019-02-27T22:21:08.105Z,37.37
2019-02-27T22:23:38.686Z,36.37
2019-02-27T22:26:08.677Z,36.31
2019-02-27T22:28:38.660Z,36.27
2019-02-27T22:31:08.635Z,36.53
2019-02-27T22:33:38.665Z,36.05
2019-02-27T22:36:12.479Z,35.81
2019-02-27T22:38:40.594Z,37.71
2019-02-27T22:41:11.600Z,37.26
2019-02-27T22:43:41.521Z,37.56
2019-02-27T22:46:13.669Z,36.29
2019-02-27T22:48:43.483Z,36.65
2019-02-27T22:51:13.532Z,36.05
2019-02-27T22:53:43.777Z,38.50
2019-02-27T22:56:16.824Z,38.31
2019-02-27T22:58:45.437Z,38.60
2019-02-27T23:01:31.075Z,37.75
2019-02-27T23:04:09.565Z,38.02
2019-02-27T23:06:39.570Z,36.83
2019-02-27T23:09:14.090Z,36.28
2019-02-27T23:11:44.721Z,36.51
2019-02-27T23:14:15.337Z,38.34
2019-02-27T23:16:48.585Z,38.57
2019-02-27T23:19:18.836Z,38.71
2019-02-27T23:21:49.906Z,38.86
2019-02-27T23:24:20.003Z,39.42
2019-02-27T23:26:54.350Z,38.87
2019-02-27T23:29:22.074Z,39.00
2019-02-27T23:31:54.799Z,38.74
2019-02-27T23:34:24.929Z,39.51
2019-02-27T23:36:56.533Z,38.63
2019-02-27T23:39:27.663Z,38.27
2019-02-27T23:41:57.576Z,37.65
2019-02-27T23:44:28.061Z,36.87
2019-02-27T23:46:58.355Z,37.38
2019-02-27T23:49:28.678Z,36.75
2019-02-27T23:51:59.184Z,36.41
2019-02-27T23:54:29.372Z,36.37
2019-02-27T23:57:00.019Z,36.63
2019-02-27T23:59:32.973Z,36.83
